createdAt,value
2023-04-03T00:02:13.129Z,-7.61
2023-04-03T00:07:16.356Z,-7.45
2023-04-03T00:12:19.253Z,-7.34
2023-04-03T00:17:21.994Z,-7.25
2023-04-03T00:22:24.928Z,-7.12
2023-04-03T00:27:27.714Z,-7.00
2023-04-03T00:32:30.443Z,-6.90
2023-04-03T00:37:33.195Z,-6.82
2023-04-03T00:42:35.999Z,-6.81
2023-04-03T00:47:40.532Z,-6.71
2023-04-03T00:52:43.295Z,-6.66
2023-04-03T00:57:47.370Z,-6.61
2023-04-03T01:02:51.522Z,-6.58
2023-04-03T01:07:55.261Z,-6.51
2023-04-03T01:12:58.022Z,-6.42
2023-04-03T01:18:02.043Z,-6.30
2023-04-03T01:23:11.058Z,-6.09
2023-04-03T01:28:17.858Z,-6.15
2023-04-03T01:33:20.839Z,-5.90
2023-04-03T01:38:24.551Z,-5.68
2023-04-03T01:43:27.394Z,-5.57
2023-04-03T01:48:30.281Z,-5.39
2023-04-03T01:53:33.040Z,-5.25
2023-04-03T01:58:36.129Z,-5.13
2023-04-03T02:03:39.066Z,-4.89
2023-04-03T02:08:43.001Z,-4.63
2023-04-03T02:13:45.879Z,-4.40
2023-04-03T02:18:48.706Z,-4.13
2023-04-03T02:23:51.476Z,-3.73
2023-04-03T02:28:55.427Z,-3.42
2023-04-03T02:33:58.213Z,-3.14
2023-04-03T02:39:01.123Z,-2.87
2023-04-03T02:44:06.250Z,-2.56
2023-04-03T02:49:09.349Z,-2.25
2023-04-03T02:54:12.346Z,-1.87
2023-04-03T02:59:19.264Z,-1.52
2023-04-03T03:04:22.145Z,-1.20
2023-04-03T03:09:25.148Z,-1.16
2023-04-03T03:14:27.833Z,-1.13
2023-04-03T03:19:30.828Z,-0.93
2023-04-03T03:24:33.554Z,-0.83
2023-04-03T03:29:36.339Z,-0.78
2023-04-03T03:34:40.643Z,-0.88
2023-04-03T03:39:43.422Z,-0.80
2023-04-03T03:44:46.250Z,-0.73
2023-04-03T03:49:49.488Z,-0.70
2023-04-03T03:54:52.758Z,-0.61
2023-04-03T03:59:55.806Z,-0.55
2023-04-03T04:04:59.599Z,-0.42
2023-04-03T04:10:02.693Z,-0.31
2023-04-03T04:15:07.129Z,-0.16
2023-04-03T04:20:10.474Z,-0.07
2023-04-03T04:25:13.387Z,0.03
2023-04-03T04:30:16.912Z,0.13
2023-04-03T04:35:21.773Z,0.22
2023-04-03T04:40:27.859Z,0.34
2023-04-03T04:45:30.734Z,0.59
2023-04-03T04:50:33.821Z,0.69
2023-04-03T04:55:36.956Z,0.67
2023-04-03T05:00:40.238Z,0.74
2023-04-03T05:05:43.570Z,0.71
2023-04-03T05:10:47.988Z,0.78
2023-04-03T05:15:51.904Z,0.90
2023-04-03T05:20:55.261Z,0.98
2023-04-03T05:26:00.724Z,1.27
2023-04-03T05:31:05.245Z,1.41
2023-04-03T05:36:11.803Z,1.48
2023-04-03T05:41:20.273Z,1.52
2023-04-03T05:46:23.732Z,1.66
2023-04-03T05:51:34.409Z,1.76
2023-04-03T05:56:42.450Z,1.90
2023-04-03T06:01:45.777Z,2.04
2023-04-03T06:06:57.900Z,2.24
2023-04-03T06:12:02.179Z,2.41
2023-04-03T06:17:06.341Z,2.44
2023-04-03T06:22:09.151Z,2.64
2023-04-03T06:27:12.750Z,2.75
2023-04-03T06:32:15.599Z,2.87
2023-04-03T06:37:19.795Z,3.01
2023-04-03T06:42:23.121Z,3.16
2023-04-03T06:47:35.436Z,3.34
2023-04-03T06:52:38.238Z,3.49
2023-04-03T06:57:40.983Z,3.72
2023-04-03T07:02:44.019Z,3.94
2023-04-03T07:07:47.080Z,4.00
2023-04-03T07:12:49.840Z,3.99
2023-04-03T07:17:52.664Z,4.05
2023-04-03T07:22:55.614Z,4.18
2023-04-03T07:27:59.043Z,4.47
2023-04-03T07:33:02.221Z,4.85
2023-04-03T07:38:04.948Z,5.06
2023-04-03T07:43:07.810Z,4.91
2023-04-03T07:48:11.920Z,5.04
2023-04-03T07:53:15.318Z,5.04
2023-04-03T07:58:19.309Z,5.10
2023-04-03T08:03:22.480Z,5.23
2023-04-03T08:08:25.978Z,5.45
2023-04-03T08:13:29.345Z,5.62
2023-04-03T08:18:33.075Z,5.76
2023-04-03T08:23:36.277Z,5.89
2023-04-03T08:28:39.252Z,6.19
2023-04-03T08:33:42.019Z,6.40
2023-04-03T08:38:44.755Z,6.51
2023-04-03T08:44:02.341Z,6.94
2023-04-03T08:49:06.350Z,7.64
2023-04-03T08:54:35.675Z,7.91
2023-04-03T08:59:39.215Z,8.03
2023-04-03T09:04:42.000Z,7.91
2023-04-03T09:09:45.213Z,7.87
2023-04-03T09:14:59.472Z,7.75
2023-04-03T09:20:18.275Z,7.67
2023-04-03T09:25:43.446Z,7.45
2023-04-03T09:30:46.481Z,7.47
2023-04-03T09:35:49.705Z,7.40
2023-04-03T09:41:16.632Z,7.20
2023-04-03T09:46:34.560Z,7.03
2023-04-03T09:51:37.773Z,6.77
2023-04-03T09:56:40.743Z,6.67
2023-04-03T10:01:45.604Z,6.55
2023-04-03T10:06:53.790Z,6.45
2023-04-03T10:12:11.790Z,6.31
2023-04-03T10:17:17.462Z,6.23
2023-04-03T10:22:37.948Z,6.14
2023-04-03T10:27:43.264Z,6.11
2023-04-03T10:33:07.172Z,6.17
2023-04-03T10:38:42.389Z,6.26
2023-04-03T10:43:49.463Z,6.28
2023-04-03T10:48:57.945Z,6.19
2023-04-03T10:54:12.989Z,5.93
2023-04-03T10:59:27.157Z,5.80
2023-04-03T11:04:33.352Z,5.70
2023-04-03T11:09:39.323Z,5.60
2023-04-03T11:14:42.468Z,5.49
2023-04-03T11:20:10.287Z,5.29
2023-04-03T11:25:12.996Z,5.21
2023-04-03T11:30:47.077Z,5.09
2023-04-03T11:35:53.225Z,5.00
2023-04-03T11:40:56.832Z,4.85
2023-04-03T11:46:06.249Z,4.86
2023-04-03T11:51:12.500Z,4.79
2023-04-03T11:56:27.589Z,4.68
2023-04-03T12:01:57.148Z,4.58
2023-04-03T12:07:20.473Z,4.48
2023-04-03T12:12:32.043Z,4.43
2023-04-03T12:17:34.884Z,4.36
2023-04-03T12:22:37.634Z,4.25
2023-04-03T12:27:42.827Z,4.14
2023-04-03T12:33:13.004Z,4.07
2023-04-03T12:38:34.761Z,4.00
2023-04-03T12:44:01.148Z,3.82
2023-04-03T12:49:04.027Z,3.72
2023-04-03T12:54:28.996Z,3.64
2023-04-03T12:59:32.019Z,3.60
2023-04-03T13:04:34.753Z,3.53
2023-04-03T13:09:37.686Z,3.48
2023-04-03T13:14:42.237Z,3.28
2023-04-03T13:19:47.996Z,3.35
2023-04-03T13:24:52.463Z,3.29
2023-04-03T13:30:01.612Z,3.16
2023-04-03T13:35:24.784Z,3.01
2023-04-03T13:40:30.208Z,2.91
2023-04-03T13:45:36.412Z,2.92
2023-04-03T13:50:57.820Z,2.90
2023-04-03T13:56:18.778Z,2.92
2023-04-03T14:01:23.125Z,2.94
2023-04-03T14:06:26.201Z,2.91
2023-04-03T14:11:32.079Z,2.87
2023-04-03T14:16:39.600Z,2.84
2023-04-03T14:21:42.357Z,2.81
2023-04-03T14:26:45.236Z,2.76
2023-04-03T14:31:55.434Z,2.71
2023-04-03T14:37:03.372Z,2.65
2023-04-03T14:42:06.355Z,2.59
2023-04-03T14:47:23.323Z,2.55
2023-04-03T14:52:35.953Z,2.44
2023-04-03T14:57:41.000Z,2.39
2023-04-03T15:02:43.995Z,2.33
2023-04-03T15:07:51.153Z,2.33
2023-04-03T15:12:54.939Z,2.24
2023-04-03T15:17:59.506Z,2.18
2023-04-03T15:23:02.655Z,2.11
2023-04-03T15:28:05.747Z,2.05
2023-04-03T15:33:08.589Z,2.01
2023-04-03T15:38:12.013Z,1.91
2023-04-03T15:43:20.450Z,1.92
2023-04-03T15:48:23.245Z,1.95
2023-04-03T15:53:26.017Z,1.97
2023-04-03T15:58:28.799Z,1.99
2023-04-03T16:03:32.234Z,2.00
2023-04-03T16:08:37.861Z,1.97
2023-04-03T16:13:40.764Z,1.94
2023-04-03T16:18:43.672Z,1.96
2023-04-03T16:23:46.579Z,1.96
2023-04-03T16:28:49.266Z,1.90
2023-04-03T16:33:52.139Z,1.80
2023-04-03T16:38:54.895Z,1.83
2023-04-03T16:43:57.696Z,1.82
2023-04-03T16:49:00.585Z,1.85
2023-04-03T16:54:03.426Z,1.83
2023-04-03T16:59:06.467Z,1.78
2023-04-03T17:04:09.446Z,1.82
2023-04-03T17:09:13.085Z,1.81
2023-04-03T17:14:15.947Z,1.84
2023-04-03T17:19:19.063Z,1.84
2023-04-03T17:24:21.776Z,1.84
2023-04-03T17:29:24.614Z,1.82
2023-04-03T17:34:27.435Z,1.82
2023-04-03T17:39:30.168Z,1.79
2023-04-03T17:44:32.877Z,1.79
2023-04-03T17:49:35.481Z,1.77
2023-04-03T17:54:38.175Z,1.79
2023-04-03T17:59:40.914Z,1.76
2023-04-03T18:04:43.615Z,1.74
2023-04-03T18:09:48.289Z,1.66
2023-04-03T18:14:51.058Z,1.55
2023-04-03T18:19:53.799Z,1.49
2023-04-03T18:24:57.402Z,1.54
2023-04-03T18:30:02.690Z,1.51
2023-04-03T18:35:06.908Z,1.39
2023-04-03T18:40:10.324Z,1.36
2023-04-03T18:45:14.399Z,1.31
2023-04-03T18:50:17.359Z,1.27
2023-04-03T18:55:20.932Z,1.30
2023-04-03T19:00:23.707Z,1.22
2023-04-03T19:05:27.603Z,1.23
2023-04-03T19:10:31.188Z,1.20
2023-04-03T19:15:34.017Z,1.21
2023-04-03T19:20:36.727Z,1.30
2023-04-03T19:25:40.118Z,1.41
2023-04-03T19:30:43.988Z,1.45
2023-04-03T19:35:47.985Z,1.40
2023-04-03T19:40:50.704Z,1.35
2023-04-03T19:45:53.732Z,1.29
2023-04-03T19:50:56.841Z,1.21
2023-04-03T19:55:59.707Z,1.16
2023-04-03T20:01:02.437Z,1.10
2023-04-03T20:06:05.313Z,1.04
2023-04-03T20:11:08.028Z,0.92
2023-04-03T20:16:11.146Z,0.96
2023-04-03T20:21:14.226Z,0.97
2023-04-03T20:26:24.008Z,0.84
2023-04-03T20:31:27.790Z,0.60
2023-04-03T20:36:31.389Z,0.61
2023-04-03T20:41:35.908Z,0.63
2023-04-03T20:46:52.241Z,0.72
2023-04-03T20:51:56.248Z,0.75
2023-04-03T20:56:59.291Z,0.75
2023-04-03T21:02:02.196Z,0.76
2023-04-03T21:07:43.749Z,0.80
2023-04-03T21:13:24.142Z,0.71
2023-04-03T21:18:38.215Z,0.47
2023-04-03T21:23:41.047Z,0.37
2023-04-03T21:28:43.855Z,0.38
2023-04-03T21:33:46.787Z,0.36
2023-04-03T21:38:50.532Z,0.33
2023-04-03T21:43:53.272Z,0.43
2023-04-03T21:48:56.315Z,0.59
2023-04-03T21:53:59.054Z,0.61
2023-04-03T21:59:03.330Z,0.61
2023-04-03T22:04:06.180Z,0.63
2023-04-03T22:09:08.912Z,0.56
2023-04-03T22:14:12.541Z,0.44
2023-04-03T22:19:15.304Z,0.27
2023-04-03T22:24:20.599Z,0.20
2023-04-03T22:29:23.416Z,-0.03
2023-04-03T22:34:26.623Z,-0.23
2023-04-03T22:39:29.330Z,-0.39
2023-04-03T22:44:36.472Z,-0.47
2023-04-03T22:49:39.534Z,-0.47
2023-04-03T22:54:42.450Z,-0.48
2023-04-03T22:59:45.090Z,-0.57
2023-04-03T23:04:48.128Z,-0.66
2023-04-03T23:09:50.878Z,-0.78
2023-04-03T23:14:53.660Z,-0.99
2023-04-03T23:19:56.299Z,-1.27
2023-04-03T23:24:59.167Z,-1.57
2023-04-03T23:30:02.027Z,-1.76
2023-04-03T23:35:06.561Z,-1.91
2023-04-03T23:40:10.386Z,-1.99
2023-04-03T23:45:14.517Z,-2.07
2023-04-03T23:50:17.251Z,-2.15
2023-04-03T23:55:19.959Z,-2.13
